createdAt,value
2022-09-20T00:01:36.886Z,7.97
2022-09-20T00:04:05.018Z,7.82
2022-09-20T00:06:33.964Z,7.70
2022-09-20T00:09:01.559Z,7.43
2022-09-20T00:11:30.901Z,8.07
2022-09-20T00:14:00.864Z,7.47
2022-09-20T00:16:31.794Z,7.80
2022-09-20T00:19:01.247Z,7.50
2022-09-20T00:21:30.791Z,7.35
2022-09-20T00:23:58.738Z,7.22
2022-09-20T00:26:28.346Z,7.47
2022-09-20T00:28:57.472Z,7.22
2022-09-20T00:31:24.933Z,7.32
2022-09-20T00:33:56.223Z,7.47
2022-09-20T00:36:23.739Z,7.68
2022-09-20T00:38:55.872Z,8.10
2022-09-20T00:41:23.297Z,8.32
2022-09-20T00:43:50.759Z,8.35
2022-09-20T00:46:23.677Z,7.72
2022-09-20T00:48:56.104Z,8.57
2022-09-20T00:51:30.000Z,8.70
2022-09-20T00:54:01.069Z,8.80
2022-09-20T00:56:31.983Z,8.50
2022-09-20T00:59:06.595Z,9.68
2022-09-20T01:01:34.227Z,9.13
2022-09-20T01:04:02.771Z,9.50
2022-09-20T01:06:34.027Z,9.50
2022-09-20T01:09:05.509Z,10.15
2022-09-20T01:11:35.384Z,9.40
2022-09-20T01:14:03.097Z,9.88
2022-09-20T01:16:32.195Z,9.30
2022-09-20T01:19:05.381Z,9.63
2022-09-20T01:21:34.630Z,9.52
2022-09-20T01:24:13.274Z,10.02
2022-09-20T01:27:13.370Z,10.45
2022-09-20T01:30:03.586Z,9.75
2022-09-20T01:32:42.766Z,9.90
2022-09-20T01:35:11.258Z,10.27
2022-09-20T01:37:50.451Z,10.10
2022-09-20T01:40:24.729Z,10.70
2022-09-20T01:43:02.792Z,11.05
2022-09-20T01:45:32.737Z,10.43
2022-09-20T01:48:12.440Z,11.38
2022-09-20T01:53:46.346Z,10.27
2022-09-20T01:57:07.983Z,11.02
2022-09-20T01:59:57.963Z,10.88
2022-09-20T02:02:49.622Z,10.75
2022-09-20T02:05:38.606Z,11.18
2022-09-20T02:08:22.482Z,10.80
2022-09-20T02:11:07.039Z,10.82
2022-09-20T02:13:50.654Z,10.95
2022-09-20T02:16:36.090Z,11.60
2022-09-20T02:19:27.981Z,11.15
2022-09-20T02:22:10.870Z,11.05
2022-09-20T02:24:46.629Z,10.30
2022-09-20T02:27:23.744Z,10.35
2022-09-20T02:30:03.886Z,10.95
2022-09-20T02:32:59.111Z,11.23
2022-09-20T02:35:40.916Z,11.15
2022-09-20T02:38:29.334Z,11.07
2022-09-20T02:41:29.533Z,10.57
2022-09-20T02:44:04.789Z,10.15
2022-09-20T02:46:41.316Z,11.38
2022-09-20T02:49:15.399Z,10.18
2022-09-20T02:51:52.266Z,10.55
2022-09-20T02:54:34.095Z,11.23
2022-09-20T02:57:12.312Z,11.63
2022-09-20T02:59:46.885Z,12.35
2022-09-20T03:02:25.143Z,11.73
2022-09-20T03:05:06.061Z,10.35
2022-09-20T03:07:46.380Z,10.25
2022-09-20T03:10:21.761Z,9.05
2022-09-20T03:13:07.895Z,10.40
2022-09-20T03:15:49.002Z,9.82
2022-09-20T03:18:18.886Z,7.18
2022-09-20T03:20:57.954Z,9.02
2022-09-20T03:23:41.287Z,7.75
2022-09-20T03:26:18.220Z,7.78
2022-09-20T03:28:58.042Z,7.38
2022-09-20T03:31:48.359Z,7.55
2022-09-20T03:34:30.047Z,8.38
2022-09-20T03:37:13.895Z,9.13
2022-09-20T03:40:03.731Z,8.93
2022-09-20T03:42:31.898Z,8.55
2022-09-20T03:45:29.124Z,8.93
2022-09-20T03:48:28.712Z,8.80
2022-09-20T03:51:10.165Z,8.20
2022-09-20T03:53:58.109Z,8.52
2022-09-20T03:57:03.840Z,8.43
2022-09-20T03:59:50.851Z,8.20
2022-09-20T04:02:33.447Z,8.57
2022-09-20T04:05:06.382Z,7.00
2022-09-20T04:07:45.749Z,9.45
2022-09-20T04:10:30.998Z,9.25
2022-09-20T04:13:13.673Z,8.15
2022-09-20T04:15:54.571Z,8.82
2022-09-20T04:18:29.167Z,8.85
2022-09-20T04:21:04.136Z,8.73
2022-09-20T04:23:43.017Z,8.43
2022-09-20T04:26:10.970Z,9.27
2022-09-20T04:28:46.315Z,9.80
2022-09-20T04:31:24.629Z,8.35
2022-09-20T04:33:57.102Z,7.88
2022-09-20T04:36:55.878Z,9.30
2022-09-20T04:39:34.629Z,9.37
2022-09-20T04:42:53.746Z,8.70
2022-09-20T04:46:04.982Z,8.15
2022-09-20T04:49:08.269Z,8.05
2022-09-20T04:52:04.295Z,8.50
2022-09-20T04:55:05.014Z,9.70
2022-09-20T04:58:11.355Z,9.93
2022-09-20T05:00:57.720Z,9.88
2022-09-20T05:03:45.169Z,9.55
2022-09-20T05:06:34.481Z,10.07
2022-09-20T05:09:37.178Z,10.13
2022-09-20T05:12:24.369Z,10.30
2022-09-20T05:15:14.601Z,12.55
2022-09-20T05:18:07.606Z,11.27
2022-09-20T05:20:52.151Z,11.90
2022-09-20T05:24:00.094Z,10.05
2022-09-20T05:26:42.839Z,11.07
2022-09-20T05:29:18.430Z,11.00
2022-09-20T05:31:53.352Z,12.73
2022-09-20T05:34:27.265Z,11.32
2022-09-20T05:37:02.065Z,12.55
2022-09-20T05:39:37.175Z,13.32
2022-09-20T05:42:18.687Z,12.30
2022-09-20T05:44:56.636Z,11.00
2022-09-20T05:47:32.674Z,12.32
2022-09-20T05:50:16.298Z,11.38
2022-09-20T05:52:52.978Z,12.57
2022-09-20T05:55:30.966Z,12.73
2022-09-20T05:58:15.158Z,12.20
2022-09-20T06:00:48.894Z,11.40
2022-09-20T06:03:26.718Z,10.98
2022-09-20T06:06:02.980Z,11.38
2022-09-20T06:09:10.154Z,12.23
2022-09-20T06:12:05.300Z,10.48
2022-09-20T06:14:44.028Z,11.10
2022-09-20T06:17:21.923Z,11.43
2022-09-20T06:19:59.579Z,10.90
2022-09-20T06:22:29.980Z,10.13
2022-09-20T06:25:03.058Z,10.93
2022-09-20T06:27:35.082Z,10.43
2022-09-20T06:30:08.263Z,10.57
2022-09-20T06:32:35.725Z,10.13
2022-09-20T06:35:04.975Z,11.27
2022-09-20T06:37:44.360Z,11.32
2022-09-20T06:40:24.281Z,11.18
2022-09-20T06:42:51.685Z,11.63
2022-09-20T06:45:20.646Z,11.45
2022-09-20T06:47:48.178Z,12.50
2022-09-20T06:50:16.321Z,12.35
2022-09-20T06:52:44.602Z,14.05
2022-09-20T06:55:18.192Z,14.15
2022-09-20T06:57:45.699Z,13.65
2022-09-20T07:00:15.154Z,13.93
2022-09-20T07:02:44.014Z,13.95
2022-09-20T07:05:15.238Z,13.75
2022-09-20T07:07:43.467Z,13.63
2022-09-20T07:10:11.119Z,12.27
2022-09-20T07:12:38.569Z,11.20
2022-09-20T07:15:07.225Z,10.65
2022-09-20T07:17:34.887Z,11.75
2022-09-20T07:20:04.059Z,10.77
2022-09-20T07:24:59.742Z,13.20
2022-09-20T07:27:29.339Z,10.45
2022-09-20T07:29:57.393Z,10.63
2022-09-20T07:32:24.814Z,11.38
2022-09-20T07:34:52.299Z,10.18
2022-09-20T07:37:21.100Z,11.80
2022-09-20T07:39:48.645Z,11.23
2022-09-20T07:42:16.302Z,11.15
2022-09-20T07:44:43.703Z,13.43
2022-09-20T07:47:11.284Z,12.07
2022-09-20T07:49:38.849Z,11.57
2022-09-20T07:52:06.719Z,16.83
2022-09-20T07:54:35.578Z,16.48
2022-09-20T07:57:03.047Z,24.07
2022-09-20T07:59:30.486Z,14.82
2022-09-20T08:01:57.952Z,22.15
2022-09-20T08:04:26.054Z,22.23
2022-09-20T08:06:53.999Z,29.45
2022-09-20T08:09:21.333Z,19.90
2022-09-20T08:11:50.171Z,22.20
2022-09-20T08:14:18.485Z,22.73
2022-09-20T08:16:47.908Z,17.58
2022-09-20T08:19:17.114Z,13.27
2022-09-20T08:21:45.162Z,15.73
2022-09-20T08:24:13.340Z,15.35
2022-09-20T08:26:40.858Z,14.60
2022-09-20T08:29:10.547Z,13.10
2022-09-20T08:34:07.172Z,12.75
2022-09-20T08:36:37.108Z,10.25
2022-09-20T08:41:56.214Z,11.98
2022-09-20T08:44:29.564Z,9.02
2022-09-20T08:47:06.805Z,9.15
2022-09-20T08:49:35.007Z,7.85
2022-09-20T08:52:04.322Z,11.70
2022-09-20T08:54:34.720Z,11.13
2022-09-20T08:57:04.317Z,9.85
2022-09-20T08:59:33.478Z,11.40
2022-09-20T09:02:01.495Z,11.75
2022-09-20T09:04:35.699Z,10.75
2022-09-20T09:07:03.748Z,10.25
2022-09-20T09:09:37.550Z,10.00
2022-09-20T09:12:05.852Z,11.55
2022-09-20T09:14:35.873Z,11.80
2022-09-20T09:17:03.390Z,15.43
2022-09-20T09:19:33.937Z,14.18
2022-09-20T09:22:03.967Z,8.60
2022-09-20T09:27:07.832Z,10.07
2022-09-20T09:29:48.511Z,14.27
2022-09-20T09:32:22.135Z,14.60
2022-09-20T09:34:49.821Z,12.70
2022-09-20T09:37:28.609Z,12.38
2022-09-20T09:40:14.978Z,12.00
2022-09-20T09:42:49.928Z,10.18
2022-09-20T09:45:31.346Z,9.15
2022-09-20T09:48:00.673Z,9.48
2022-09-20T09:50:31.051Z,11.25
2022-09-20T09:53:10.222Z,11.52
2022-09-20T09:56:07.960Z,10.57
2022-09-20T09:59:02.216Z,12.75
2022-09-20T10:01:39.319Z,14.30
2022-09-20T10:04:16.070Z,14.35
2022-09-20T10:06:52.446Z,11.65
2022-09-20T10:09:34.265Z,13.82
2022-09-20T10:12:14.439Z,13.00
2022-09-20T10:14:57.639Z,11.00
2022-09-20T10:17:52.039Z,10.75
2022-09-20T10:20:42.896Z,9.30
2022-09-20T10:23:58.703Z,9.48
2022-09-20T10:26:32.017Z,10.80
2022-09-20T10:29:10.063Z,10.15
2022-09-20T10:31:48.383Z,9.18
2022-09-20T10:34:46.421Z,9.55
2022-09-20T10:37:19.314Z,9.98
2022-09-20T10:39:53.645Z,10.48
2022-09-20T10:42:37.968Z,9.27
2022-09-20T10:45:36.019Z,8.73
2022-09-20T10:48:05.970Z,8.77
2022-09-20T10:50:42.558Z,8.88
2022-09-20T10:53:29.234Z,8.40
2022-09-20T10:56:09.618Z,8.27
2022-09-20T10:59:03.058Z,7.72
2022-09-20T11:01:36.772Z,8.88
2022-09-20T11:04:32.505Z,7.85
2022-09-20T11:07:11.832Z,8.18
2022-09-20T11:09:43.265Z,8.52
2022-09-20T11:12:15.362Z,7.45
2022-09-20T11:14:49.414Z,8.55
2022-09-20T11:17:23.328Z,8.75
2022-09-20T11:19:59.221Z,7.75
2022-09-20T11:22:34.868Z,7.25
2022-09-20T11:25:14.064Z,6.72
2022-09-20T11:27:48.199Z,7.00
2022-09-20T11:30:19.176Z,6.68
2022-09-20T11:32:51.526Z,5.80
2022-09-20T11:35:29.319Z,6.43
2022-09-20T11:38:09.842Z,6.45
2022-09-20T11:40:43.382Z,6.88
2022-09-20T11:43:13.880Z,6.07
2022-09-20T11:45:43.511Z,5.82
2022-09-20T11:51:10.260Z,5.88
2022-09-20T11:53:55.819Z,5.32
2022-09-20T11:56:25.850Z,6.15
2022-09-20T11:58:55.823Z,6.38
2022-09-20T12:01:28.730Z,5.85
2022-09-20T12:04:20.534Z,5.70
2022-09-20T12:06:47.378Z,5.25
2022-09-20T12:09:26.433Z,5.40
2022-09-20T12:11:54.952Z,4.90
2022-09-20T12:14:25.378Z,5.45
2022-09-20T12:16:53.706Z,5.10
2022-09-20T12:19:37.427Z,5.88
2022-09-20T12:22:27.575Z,5.20
2022-09-20T12:27:59.463Z,5.28
2022-09-20T12:30:27.082Z,5.25
2022-09-20T12:32:56.940Z,5.30
2022-09-20T12:36:12.316Z,5.30
2022-09-20T12:38:47.674Z,5.45
2022-09-20T12:41:27.539Z,5.35
2022-09-20T12:44:01.748Z,5.15
2022-09-20T12:46:40.596Z,4.75
2022-09-20T12:49:26.663Z,5.40
2022-09-20T12:51:54.235Z,5.13
2022-09-20T12:54:21.770Z,4.82
2022-09-20T12:56:49.707Z,5.30
2022-09-20T12:59:25.626Z,5.03
2022-09-20T13:01:53.131Z,4.70
2022-09-20T13:04:54.376Z,4.45
2022-09-20T13:07:52.345Z,5.15
2022-09-20T13:10:34.195Z,4.68
2022-09-20T13:13:11.315Z,4.80
2022-09-20T13:15:41.004Z,5.10
2022-09-20T13:20:42.843Z,5.15
2022-09-20T13:23:19.518Z,5.40
2022-09-20T13:25:48.582Z,5.38
2022-09-20T13:28:26.900Z,6.00
2022-09-20T13:31:26.351Z,5.05
2022-09-20T13:33:54.624Z,5.25
2022-09-20T13:36:28.231Z,5.47
2022-09-20T13:38:57.487Z,6.20
2022-09-20T13:41:28.751Z,6.05
2022-09-20T13:43:56.788Z,5.57
2022-09-20T13:46:30.665Z,5.82
2022-09-20T13:49:15.177Z,6.03
2022-09-20T13:51:42.832Z,5.97
2022-09-20T13:54:25.623Z,7.03
2022-09-20T13:56:55.006Z,7.82
2022-09-20T13:59:23.558Z,7.95
2022-09-20T14:01:54.625Z,8.13
2022-09-20T14:04:24.524Z,6.90
2022-09-20T14:06:55.263Z,7.35
2022-09-20T14:09:28.555Z,6.95
2022-09-20T14:11:56.709Z,6.82
2022-09-20T14:14:25.406Z,7.00
2022-09-20T14:16:56.291Z,7.35
2022-09-20T14:19:29.035Z,6.90
2022-09-20T14:21:57.015Z,6.57
2022-09-20T14:24:29.815Z,6.30
2022-09-20T14:27:03.764Z,6.47
2022-09-20T14:29:39.630Z,6.30
2022-09-20T14:32:29.602Z,6.50
2022-09-20T14:35:03.317Z,5.47
2022-09-20T14:37:32.957Z,7.03
2022-09-20T14:40:03.130Z,6.55
2022-09-20T14:42:35.340Z,6.70
2022-09-20T14:45:04.127Z,7.28
2022-09-20T14:47:39.388Z,7.43
2022-09-20T14:50:24.858Z,7.85
2022-09-20T14:53:18.941Z,7.88
2022-09-20T14:56:00.564Z,6.90
2022-09-20T14:58:28.105Z,8.20
2022-09-20T15:00:58.553Z,7.53
2022-09-20T15:03:31.032Z,7.95
2022-09-20T15:05:58.803Z,6.88
2022-09-20T15:08:26.536Z,6.80
2022-09-20T15:10:53.908Z,6.25
2022-09-20T15:13:21.399Z,6.25
2022-09-20T15:15:51.202Z,6.43
2022-09-20T15:18:21.735Z,6.05
2022-09-20T15:20:51.183Z,6.25
2022-09-20T15:23:18.711Z,5.97
2022-09-20T15:25:46.135Z,5.18
2022-09-20T15:28:14.790Z,5.22
2022-09-20T15:30:42.206Z,5.22
2022-09-20T15:33:10.459Z,5.97
2022-09-20T15:35:38.436Z,5.20
2022-09-20T15:38:07.925Z,5.13
2022-09-20T15:40:36.120Z,5.05
2022-09-20T15:43:03.654Z,5.13
2022-09-20T15:45:31.196Z,4.50
2022-09-20T15:47:58.647Z,4.85
2022-09-20T15:50:26.107Z,3.92
2022-09-20T15:52:55.816Z,5.43
2022-09-20T15:55:28.737Z,5.18
2022-09-20T15:57:59.237Z,5.15
2022-09-20T16:00:26.819Z,5.10
2022-09-20T16:02:54.300Z,5.90
2022-09-20T16:05:21.912Z,5.13
2022-09-20T16:07:49.437Z,5.43
2022-09-20T16:10:16.842Z,5.80
2022-09-20T16:12:45.802Z,6.43
2022-09-20T16:15:13.280Z,6.97
2022-09-20T16:17:40.677Z,6.18
2022-09-20T16:20:08.993Z,6.45
2022-09-20T16:22:36.480Z,6.88
2022-09-20T16:25:04.287Z,6.35
2022-09-20T16:27:31.987Z,6.72
2022-09-20T16:30:01.307Z,6.78
2022-09-20T16:32:28.766Z,6.32
2022-09-20T16:34:56.654Z,6.35
2022-09-20T16:37:24.040Z,6.95
2022-09-20T16:39:51.453Z,6.85
2022-09-20T16:42:18.930Z,6.65
2022-09-20T16:44:46.298Z,7.03
2022-09-20T16:47:15.928Z,7.60
2022-09-20T16:49:43.510Z,7.82
2022-09-20T16:52:11.744Z,8.27
2022-09-20T16:54:39.357Z,8.18
2022-09-20T16:57:06.887Z,7.53
2022-09-20T16:59:34.286Z,6.53
2022-09-20T17:02:01.736Z,6.72
2022-09-20T17:04:30.649Z,6.45
2022-09-20T17:06:58.048Z,7.05
2022-09-20T17:09:25.575Z,7.65
2022-09-20T17:11:53.004Z,7.80
2022-09-20T17:14:21.030Z,7.72
2022-09-20T17:16:48.548Z,9.25
2022-09-20T17:19:17.963Z,7.45
2022-09-20T17:21:48.990Z,7.95
2022-09-20T17:24:17.781Z,9.30
2022-09-20T17:26:45.719Z,8.63
2022-09-20T17:29:14.665Z,9.02
2022-09-20T17:31:43.854Z,9.63
2022-09-20T17:34:12.359Z,9.25
2022-09-20T17:36:41.007Z,9.65
2022-09-20T17:39:10.948Z,10.73
2022-09-20T17:41:39.381Z,9.88
2022-09-20T17:44:06.850Z,9.40
2022-09-20T17:46:35.495Z,9.85
2022-09-20T17:49:05.175Z,10.48
2022-09-20T17:54:01.258Z,10.00
2022-09-20T17:56:30.670Z,9.85
2022-09-20T17:58:59.195Z,10.23
2022-09-20T18:01:28.143Z,9.98
2022-09-20T18:03:57.238Z,9.70
2022-09-20T18:06:26.117Z,9.90
2022-09-20T18:08:55.564Z,10.00
2022-09-20T18:11:26.897Z,10.10
2022-09-20T18:13:55.815Z,9.55
2022-09-20T18:16:23.392Z,13.10
2022-09-20T18:18:51.187Z,9.63
2022-09-20T18:21:19.880Z,9.02
2022-09-20T18:23:48.266Z,8.68
2022-09-20T18:26:17.135Z,9.40
2022-09-20T18:28:48.697Z,9.33
2022-09-20T18:31:18.265Z,9.70
2022-09-20T18:33:45.774Z,8.73
2022-09-20T18:36:13.472Z,10.90
2022-09-20T18:38:44.515Z,15.95
2022-09-20T18:41:12.516Z,12.50
2022-09-20T18:43:40.637Z,12.88
2022-09-20T18:46:08.217Z,12.25
2022-09-20T18:48:37.075Z,11.50
2022-09-20T18:51:05.359Z,11.57
2022-09-20T18:53:34.115Z,8.88
2022-09-20T18:56:06.842Z,9.13
2022-09-20T18:58:35.457Z,8.45
2022-09-20T19:01:22.604Z,9.18
2022-09-20T19:04:01.006Z,7.82
2022-09-20T19:06:34.006Z,7.95
2022-09-20T19:09:07.121Z,7.50
2022-09-20T19:11:39.488Z,7.30
2022-09-20T19:14:13.173Z,7.03
2022-09-20T19:16:40.900Z,6.90
2022-09-20T19:19:33.515Z,8.27
2022-09-20T19:22:15.093Z,8.95
2022-09-20T19:25:09.617Z,8.63
2022-09-20T19:27:37.463Z,8.30
2022-09-20T19:30:05.929Z,9.00
2022-09-20T19:32:34.327Z,9.48
2022-09-20T19:35:04.111Z,8.85
2022-09-20T19:40:28.247Z,9.27
2022-09-20T19:43:08.741Z,8.77
2022-09-20T19:45:47.126Z,8.02
2022-09-20T19:48:20.955Z,8.10
2022-09-20T19:50:52.144Z,9.05
2022-09-20T19:53:21.787Z,7.38
2022-09-20T19:55:54.109Z,6.82
2022-09-20T19:58:22.118Z,7.00
2022-09-20T20:00:50.185Z,6.50
2022-09-20T20:03:20.706Z,6.32
2022-09-20T20:06:02.419Z,6.25
2022-09-20T20:08:38.177Z,6.97
2022-09-20T20:11:13.939Z,6.47
2022-09-20T20:13:49.615Z,6.30
2022-09-20T20:16:23.535Z,5.80
2022-09-20T20:19:02.896Z,5.53
2022-09-20T20:21:42.490Z,5.70
2022-09-20T20:26:43.173Z,5.40
2022-09-20T20:29:10.709Z,5.10
2022-09-20T20:31:38.304Z,6.03
2022-09-20T20:34:05.675Z,5.45
2022-09-20T20:36:34.614Z,5.53
2022-09-20T20:39:02.026Z,5.55
2022-09-20T20:41:29.420Z,6.30
2022-09-20T20:43:56.783Z,6.75
2022-09-20T20:46:24.514Z,6.38
2022-09-20T20:48:51.985Z,6.68
2022-09-20T20:51:21.840Z,5.70
2022-09-20T20:53:51.971Z,7.07
2022-09-20T20:56:21.452Z,6.53
2022-09-20T20:58:49.666Z,6.40
2022-09-20T21:01:19.427Z,6.78
2022-09-20T21:03:48.386Z,5.68
2022-09-20T21:06:16.418Z,5.97
2022-09-20T21:08:48.981Z,6.10
2022-09-20T21:11:20.878Z,6.53
2022-09-20T21:13:48.246Z,5.70
2022-09-20T21:16:17.712Z,5.88
2022-09-20T21:18:46.594Z,6.07
2022-09-20T21:21:16.577Z,5.88
2022-09-20T21:23:44.525Z,5.68
2022-09-20T21:26:13.355Z,6.95
2022-09-20T21:28:43.714Z,5.93
2022-09-20T21:31:12.590Z,6.65
2022-09-20T21:33:41.658Z,6.00
2022-09-20T21:36:11.209Z,6.00
2022-09-20T21:38:39.304Z,5.90
2022-09-20T21:41:08.946Z,5.55
2022-09-20T21:43:36.917Z,5.55
2022-09-20T21:46:05.911Z,5.50
2022-09-20T21:48:33.282Z,5.28
2022-09-20T21:51:02.295Z,5.15
2022-09-20T21:53:31.846Z,5.13
2022-09-20T21:56:00.258Z,6.53
2022-09-20T21:58:28.046Z,7.57
2022-09-20T22:01:03.686Z,7.82
2022-09-20T22:03:34.271Z,8.52
2022-09-20T22:06:13.110Z,7.72
2022-09-20T22:08:42.568Z,7.60
2022-09-20T22:11:14.636Z,8.50
2022-09-20T22:13:43.481Z,8.10
2022-09-20T22:16:12.742Z,7.78
2022-09-20T22:18:43.146Z,7.43
2022-09-20T22:21:12.270Z,7.63
2022-09-20T22:23:40.184Z,7.32
2022-09-20T22:26:10.123Z,7.68
2022-09-20T22:28:37.844Z,8.00
2022-09-20T22:31:07.972Z,7.85
2022-09-20T22:33:35.879Z,8.13
2022-09-20T22:36:07.774Z,7.25
2022-09-20T22:38:35.121Z,7.35
2022-09-20T22:41:02.529Z,8.05
2022-09-20T22:43:32.309Z,7.40
2022-09-20T22:46:03.305Z,6.95
2022-09-20T22:48:30.966Z,7.07
2022-09-20T22:51:01.907Z,7.15
2022-09-20T22:53:31.565Z,6.72
2022-09-20T22:56:09.422Z,7.03
2022-09-20T22:58:38.135Z,6.60
2022-09-20T23:01:07.212Z,6.13
2022-09-20T23:03:35.123Z,6.80
2022-09-20T23:06:02.773Z,6.35
2022-09-20T23:08:33.129Z,6.55
2022-09-20T23:11:01.903Z,6.57
2022-09-20T23:13:29.821Z,6.07
2022-09-20T23:15:57.319Z,6.28
2022-09-20T23:18:25.068Z,6.03
2022-09-20T23:21:00.742Z,6.00
2022-09-20T23:23:29.426Z,6.75
2022-09-20T23:26:03.862Z,5.95
2022-09-20T23:28:31.240Z,5.70
2022-09-20T23:31:04.450Z,5.90
2022-09-20T23:33:32.395Z,5.78
2022-09-20T23:36:00.528Z,5.35
2022-09-20T23:38:28.378Z,5.32
2022-09-20T23:41:01.622Z,5.55
2022-09-20T23:43:29.150Z,5.53
2022-09-20T23:45:57.174Z,5.50
2022-09-20T23:48:24.587Z,5.93
2022-09-20T23:50:52.770Z,5.50
2022-09-20T23:53:20.232Z,5.45
2022-09-20T23:55:47.650Z,5.20
2022-09-20T23:58:16.919Z,4.90
